sensor_id;sensor_type;location;lat;lon;timestamp;pressure;altitude;pressure_sealevel;temperature;humidity
52137;BME280;69622;49.570;10.986;2024-03-07T00:01:27;98972.59;;;3.21;100.00
52137;BME280;69622;49.570;10.986;2024-03-07T00:04:29;98976.66;;;3.26;100.00
52137;BME280;69622;49.570;10.986;2024-03-07T00:07:30;98977.38;;;3.30;100.00
52137;BME280;69622;49.570;10.986;2024-03-07T00:10:32;98973.88;;;3.33;100.00
52137;BME280;69622;49.570;10.986;2024-03-07T00:13:33;98973.06;;;3.30;100.00
52137;BME280;69622;49.570;10.986;2024-03-07T00:16:35;98980.25;;;3.22;100.00
52137;BME280;69622;49.570;10.986;2024-03-07T00:19:36;98984.13;;;3.09;100.00
52137;BME280;69622;49.570;10.986;2024-03-07T00:22:38;98975.41;;;3.13;100.00
52137;BME280;69622;49.570;10.986;2024-03-07T00:25:39;98973.63;;;3.15;100.00
52137;BME280;69622;49.570;10.986;2024-03-07T00:28:41;98970.84;;;3.21;100.00
52137;BME280;69622;49.570;10.986;2024-03-07T00:31:44;98968.47;;;3.15;100.00
52137;BME280;69622;49.570;10.986;2024-03-07T00:34:48;98971.81;;;2.94;100.00
52137;BME280;69622;49.570;10.986;2024-03-07T00:37:49;98970.91;;;2.95;100.00
52137;BME280;69622;49.570;10.986;2024-03-07T00:40:51;98969.22;;;2.94;100.00
52137;BME280;69622;49.570;10.986;2024-03-07T00:43:52;98958.91;;;2.95;100.00
52137;BME280;69622;49.570;10.986;2024-03-07T00:46:54;98951.72;;;3.05;100.00
52137;BME280;69622;49.570;10.986;2024-03-07T00:49:55;98954.47;;;3.00;100.00
52137;BME280;69622;49.570;10.986;2024-03-07T00:52:57;98950.25;;;2.98;100.00
52137;BME280;69622;49.570;10.986;2024-03-07T00:55:58;98955.50;;;2.95;100.00
52137;BME280;69622;49.570;10.986;2024-03-07T00:59:00;98950.41;;;2.93;100.00
52137;BME280;69622;49.570;10.986;2024-03-07T01:02:01;98951.41;;;2.89;100.00
52137;BME280;69622;49.570;10.986;2024-03-07T01:05:03;98952.25;;;2.90;100.00
52137;BME280;69622;49.570;10.986;2024-03-07T01:08:09;98948.06;;;2.87;100.00
52137;BME280;69622;49.570;10.986;2024-03-07T01:11:11;98946.69;;;2.77;100.00
52137;BME280;69622;49.570;10.986;2024-03-07T01:14:13;98945.06;;;2.75;100.00
52137;BME280;69622;49.570;10.986;2024-03-07T01:17:15;98947.44;;;2.56;100.00
52137;BME280;69622;49.570;10.986;2024-03-07T01:20:17;98949.44;;;2.46;100.00
52137;BME280;69622;49.570;10.986;2024-03-07T01:23:18;98944.53;;;2.40;100.00
52137;BME280;69622;49.570;10.986;2024-03-07T01:26:20;98950.72;;;2.06;100.00
52137;BME280;69622;49.570;10.986;2024-03-07T01:29:21;98949.13;;;2.02;100.00
52137;BME280;69622;49.570;10.986;2024-03-07T01:32:24;98936.28;;;2.02;100.00
52137;BME280;69622;49.570;10.986;2024-03-07T01:35:26;98937.84;;;2.08;100.00
52137;BME280;69622;49.570;10.986;2024-03-07T01:38:27;98936.75;;;2.15;100.00
52137;BME280;69622;49.570;10.986;2024-03-07T01:41:29;98929.44;;;2.03;100.00
52137;BME280;69622;49.570;10.986;2024-03-07T01:44:30;98928.19;;;1.88;100.00
52137;BME280;69622;49.570;10.986;2024-03-07T01:47:34;98929.16;;;1.84;100.00
52137;BME280;69622;49.570;10.986;2024-03-07T01:50:37;98929.84;;;1.91;100.00
52137;BME280;69622;49.570;10.986;2024-03-07T01:53:39;98915.81;;;2.01;100.00
52137;BME280;69622;49.570;10.986;2024-03-07T01:56:41;98922.25;;;2.14;100.00
52137;BME280;69622;49.570;10.986;2024-03-07T01:59:43;98918.75;;;2.17;100.00
52137;BME280;69622;49.570;10.986;2024-03-07T02:02:45;98911.56;;;2.28;100.00
52137;BME280;69622;49.570;10.986;2024-03-07T02:05:47;98910.50;;;2.33;100.00
52137;BME280;69622;49.570;10.986;2024-03-07T02:08:49;98905.69;;;2.49;100.00
52137;BME280;69622;49.570;10.986;2024-03-07T02:11:51;98904.75;;;2.52;100.00
52137;BME280;69622;49.570;10.986;2024-03-07T02:14:52;98900.28;;;2.58;100.00
52137;BME280;69622;49.570;10.986;2024-03-07T02:17:54;98895.63;;;2.69;100.00
52137;BME280;69622;49.570;10.986;2024-03-07T02:20:55;98887.56;;;2.79;100.00
52137;BME280;69622;49.570;10.986;2024-03-07T02:23:57;98891.81;;;2.80;100.00
52137;BME280;69622;49.570;10.986;2024-03-07T02:26:59;98887.63;;;2.77;100.00
52137;BME280;69622;49.570;10.986;2024-03-07T02:30:00;98879.69;;;2.83;100.00
52137;BME280;69622;49.570;10.986;2024-03-07T02:33:05;98881.25;;;2.64;100.00
52137;BME280;69622;49.570;10.986;2024-03-07T02:36:10;98882.66;;;2.73;100.00
52137;BME280;69622;49.570;10.986;2024-03-07T02:39:12;98880.88;;;2.75;100.00
52137;BME280;69622;49.570;10.986;2024-03-07T02:42:13;98867.09;;;2.77;100.00
52137;BME280;69622;49.570;10.986;2024-03-07T02:45:15;98867.81;;;2.81;100.00
52137;BME280;69622;49.570;10.986;2024-03-07T02:48:17;98875.31;;;2.87;100.00
52137;BME280;69622;49.570;10.986;2024-03-07T02:51:20;98873.47;;;2.90;100.00
52137;BME280;69622;49.570;10.986;2024-03-07T02:54:21;98862.78;;;2.78;100.00
52137;BME280;69622;49.570;10.986;2024-03-07T02:57:23;98863.44;;;2.83;100.00
52137;BME280;69622;49.570;10.986;2024-03-07T03:00:25;98871.22;;;2.81;100.00
52137;BME280;69622;49.570;10.986;2024-03-07T03:03:31;98865.41;;;2.76;100.00
52137;BME280;69622;49.570;10.986;2024-03-07T03:06:32;98868.94;;;2.74;100.00
52137;BME280;69622;49.570;10.986;2024-03-07T03:09:34;98871.75;;;2.91;100.00
52137;BME280;69622;49.570;10.986;2024-03-07T03:12:37;98867.06;;;3.02;100.00
52137;BME280;69622;49.570;10.986;2024-03-07T03:15:38;98864.31;;;3.07;100.00
52137;BME280;69622;49.570;10.986;2024-03-07T03:18:40;98863.66;;;3.02;100.00
52137;BME280;69622;49.570;10.986;2024-03-07T03:21:41;98859.50;;;2.97;100.00
52137;BME280;69622;49.570;10.986;2024-03-07T03:24:44;98864.81;;;2.93;100.00
52137;BME280;69622;49.570;10.986;2024-03-07T03:27:45;98874.00;;;3.00;100.00
52137;BME280;69622;49.570;10.986;2024-03-07T03:30:49;98860.81;;;2.86;100.00
52137;BME280;69622;49.570;10.986;2024-03-07T03:33:51;98864.09;;;2.89;100.00
52137;BME280;69622;49.570;10.986;2024-03-07T03:36:53;98861.41;;;2.69;100.00
52137;BME280;69622;49.570;10.986;2024-03-07T03:39:54;98865.63;;;2.70;100.00
52137;BME280;69622;49.570;10.986;2024-03-07T03:42:56;98860.63;;;2.65;100.00
52137;BME280;69622;49.570;10.986;2024-03-07T03:45:57;98859.44;;;2.76;100.00
52137;BME280;69622;49.570;10.986;2024-03-07T03:48:59;98857.59;;;2.79;100.00
52137;BME280;69622;49.570;10.986;2024-03-07T03:52:01;98856.34;;;2.66;100.00
52137;BME280;69622;49.570;10.986;2024-03-07T03:55:03;98859.13;;;2.60;100.00
52137;BME280;69622;49.570;10.986;2024-03-07T03:58:10;98857.28;;;2.63;100.00
52137;BME280;69622;49.570;10.986;2024-03-07T04:01:12;98853.72;;;2.67;100.00
52137;BME280;69622;49.570;10.986;2024-03-07T04:04:16;98857.94;;;2.70;100.00
52137;BME280;69622;49.570;10.986;2024-03-07T04:07:20;98857.41;;;2.60;100.00
52137;BME280;69622;49.570;10.986;2024-03-07T04:10:22;98856.94;;;2.49;100.00
52137;BME280;69622;49.570;10.986;2024-03-07T04:13:23;98862.84;;;2.51;100.00
52137;BME280;69622;49.570;10.986;2024-03-07T04:16:25;98855.41;;;2.44;100.00
52137;BME280;69622;49.570;10.986;2024-03-07T04:19:26;98863.59;;;2.30;100.00
52137;BME280;69622;49.570;10.986;2024-03-07T04:22:28;98864.25;;;2.35;100.00
52137;BME280;69622;49.570;10.986;2024-03-07T04:25:30;98863.38;;;2.36;100.00
52137;BME280;69622;49.570;10.986;2024-03-07T04:28:32;98861.00;;;2.30;100.00
52137;BME280;69622;49.570;10.986;2024-03-07T04:31:34;98865.75;;;2.42;100.00
52137;BME280;69622;49.570;10.986;2024-03-07T04:34:35;98866.03;;;2.33;100.00
52137;BME280;69622;49.570;10.986;2024-03-07T04:37:38;98866.94;;;2.32;100.00
52137;BME280;69622;49.570;10.986;2024-03-07T04:40:39;98866.88;;;2.33;100.00
52137;BME280;69622;49.570;10.986;2024-03-07T04:43:41;98868.72;;;2.30;100.00
52137;BME280;69622;49.570;10.986;2024-03-07T04:46:43;98872.28;;;2.26;100.00
52137;BME280;69622;49.570;10.986;2024-03-07T04:49:46;98867.97;;;2.26;100.00
52137;BME280;69622;49.570;10.986;2024-03-07T04:52:47;98874.13;;;2.21;100.00
52137;BME280;69622;49.570;10.986;2024-03-07T04:55:51;98875.91;;;2.19;100.00
52137;BME280;69622;49.570;10.986;2024-03-07T04:58:52;98875.00;;;2.21;100.00
52137;BME280;69622;49.570;10.986;2024-03-07T05:01:55;98870.91;;;2.16;100.00
52137;BME280;69622;49.570;10.986;2024-03-07T05:04:56;98870.78;;;2.19;100.00
52137;BME280;69622;49.570;10.986;2024-03-07T05:07:58;98875.13;;;2.17;100.00
52137;BME280;69622;49.570;10.986;2024-03-07T05:10:59;98876.97;;;2.13;100.00
52137;BME280;69622;49.570;10.986;2024-03-07T05:14:01;98878.69;;;1.86;100.00
52137;BME280;69622;49.570;10.986;2024-03-07T05:17:03;98876.94;;;1.87;100.00
52137;BME280;69622;49.570;10.986;2024-03-07T05:20:10;98884.31;;;1.41;100.00
52137;BME280;69622;49.570;10.986;2024-03-07T05:23:12;98879.72;;;1.53;100.00
52137;BME280;69622;49.570;10.986;2024-03-07T05:26:18;98881.75;;;1.69;100.00
52137;BME280;69622;49.570;10.986;2024-03-07T05:29:19;98884.31;;;1.69;100.00
52137;BME280;69622;49.570;10.986;2024-03-07T05:32:25;98890.28;;;1.70;100.00
52137;BME280;69622;49.570;10.986;2024-03-07T05:35:28;98885.84;;;1.76;100.00
52137;BME280;69622;49.570;10.986;2024-03-07T05:38:31;98883.00;;;1.56;100.00
52137;BME280;69622;49.570;10.986;2024-03-07T05:41:32;98883.69;;;1.63;100.00
52137;BME280;69622;49.570;10.986;2024-03-07T05:44:34;98874.53;;;1.82;100.00
52137;BME280;69622;49.570;10.986;2024-03-07T05:47:35;98876.09;;;1.86;100.00
52137;BME280;69622;49.570;10.986;2024-03-07T05:50:37;98880.28;;;1.90;100.00
52137;BME280;69622;49.570;10.986;2024-03-07T05:53:38;98881.13;;;1.91;100.00
52137;BME280;69622;49.570;10.986;2024-03-07T05:56:42;98877.34;;;2.01;100.00
52137;BME280;69622;49.570;10.986;2024-03-07T05:59:43;98882.06;;;1.87;100.00
52137;BME280;69622;49.570;10.986;2024-03-07T06:02:46;98880.28;;;1.90;100.00
52137;BME280;69622;49.570;10.986;2024-03-07T06:05:47;98888.50;;;2.00;100.00
52137;BME280;69622;49.570;10.986;2024-03-07T06:08:52;98883.22;;;2.04;100.00
52137;BME280;69622;49.570;10.986;2024-03-07T06:11:53;98887.66;;;1.99;100.00
52137;BME280;69622;49.570;10.986;2024-03-07T06:14:55;98885.97;;;1.72;100.00
52137;BME280;69622;49.570;10.986;2024-03-07T06:17:57;98877.78;;;1.61;100.00
52137;BME280;69622;49.570;10.986;2024-03-07T06:20:58;98881.19;;;1.32;100.00
52137;BME280;69622;49.570;10.986;2024-03-07T06:24:00;98888.50;;;1.16;100.00
52137;BME280;69622;49.570;10.986;2024-03-07T06:27:02;98877.97;;;1.25;100.00
52137;BME280;69622;49.570;10.986;2024-03-07T06:30:11;98880.72;;;1.19;100.00
52137;BME280;69622;49.570;10.986;2024-03-07T06:33:13;98880.75;;;1.17;100.00
52137;BME280;69622;49.570;10.986;2024-03-07T06:36:15;98880.91;;;1.13;100.00
52137;BME280;69622;49.570;10.986;2024-03-07T06:39:18;98887.38;;;1.25;100.00
52137;BME280;69622;49.570;10.986;2024-03-07T06:42:23;98890.50;;;1.34;100.00
52137;BME280;69622;49.570;10.986;2024-03-07T06:45:25;98886.72;;;1.18;100.00
52137;BME280;69622;49.570;10.986;2024-03-07T06:48:27;98885.47;;;1.31;100.00
52137;BME280;69622;49.570;10.986;2024-03-07T06:51:29;98886.19;;;1.36;100.00
52137;BME280;69622;49.570;10.986;2024-03-07T06:54:31;98888.09;;;1.58;100.00
52137;BME280;69622;49.570;10.986;2024-03-07T06:57:33;98884.81;;;1.25;100.00
52137;BME280;69622;49.570;10.986;2024-03-07T07:00:35;98886.56;;;1.23;100.00
52137;BME280;69622;49.570;10.986;2024-03-07T07:03:38;98893.97;;;1.33;100.00
52137;BME280;69622;49.570;10.986;2024-03-07T07:06:40;98897.09;;;1.43;100.00
52137;BME280;69622;49.570;10.986;2024-03-07T07:09:44;98897.91;;;1.45;100.00
52137;BME280;69622;49.570;10.986;2024-03-07T07:12:46;98890.97;;;1.76;100.00
52137;BME280;69622;49.570;10.986;2024-03-07T07:15:49;98892.75;;;1.73;100.00
52137;BME280;69622;49.570;10.986;2024-03-07T07:18:50;98887.63;;;1.73;100.00
52137;BME280;69622;49.570;10.986;2024-03-07T07:21:53;98887.84;;;1.67;100.00
52137;BME280;69622;49.570;10.986;2024-03-07T07:24:55;98881.72;;;1.71;100.00
52137;BME280;69622;49.570;10.986;2024-03-07T07:27:56;98884.28;;;1.71;100.00
52137;BME280;69622;49.570;10.986;2024-03-07T07:30:58;98884.38;;;1.68;100.00
52137;BME280;69622;49.570;10.986;2024-03-07T07:33:59;98887.88;;;1.65;100.00
52137;BME280;69622;49.570;10.986;2024-03-07T07:37:01;98882.38;;;1.49;100.00
52137;BME280;69622;49.570;10.986;2024-03-07T07:40:03;98883.78;;;1.60;100.00
52137;BME280;69622;49.570;10.986;2024-03-07T07:43:05;98889.38;;;1.44;100.00
52137;BME280;69622;49.570;10.986;2024-03-07T07:46:07;98877.94;;;1.55;100.00
52137;BME280;69622;49.570;10.986;2024-03-07T07:49:08;98884.88;;;1.51;100.00
52137;BME280;69622;49.570;10.986;2024-03-07T07:52:10;98877.19;;;1.51;100.00
52137;BME280;69622;49.570;10.986;2024-03-07T07:55:24;98880.00;;;1.71;100.00
52137;BME280;69622;49.570;10.986;2024-03-07T07:58:26;98878.81;;;1.82;100.00
52137;BME280;69622;49.570;10.986;2024-03-07T08:01:28;98876.22;;;1.83;100.00
52137;BME280;69622;49.570;10.986;2024-03-07T08:04:29;98872.47;;;1.93;100.00
52137;BME280;69622;49.570;10.986;2024-03-07T08:07:31;98877.06;;;1.84;100.00
52137;BME280;69622;49.570;10.986;2024-03-07T08:10:34;98866.78;;;1.84;100.00
52137;BME280;69622;49.570;10.986;2024-03-07T08:13:36;98871.38;;;2.00;100.00
52137;BME280;69622;49.570;10.986;2024-03-07T08:16:37;98875.84;;;2.22;100.00
52137;BME280;69622;49.570;10.986;2024-03-07T08:19:39;98868.59;;;2.08;100.00
52137;BME280;69622;49.570;10.986;2024-03-07T08:22:42;98861.78;;;2.32;100.00
52137;BME280;69622;49.570;10.986;2024-03-07T08:25:44;98873.44;;;2.42;100.00
52137;BME280;69622;49.570;10.986;2024-03-07T08:28:45;98862.19;;;2.71;100.00
52137;BME280;69622;49.570;10.986;2024-03-07T08:31:49;98861.69;;;2.85;100.00
52137;BME280;69622;49.570;10.986;2024-03-07T08:34:51;98858.84;;;2.67;100.00
52137;BME280;69622;49.570;10.986;2024-03-07T08:37:53;98860.81;;;2.61;100.00
52137;BME280;69622;49.570;10.986;2024-03-07T08:40:56;98859.91;;;2.87;100.00
52137;BME280;69622;49.570;10.986;2024-03-07T08:43:58;98854.38;;;2.74;100.00
52137;BME280;69622;49.570;10.986;2024-03-07T08:46:59;98855.44;;;2.92;100.00
52137;BME280;69622;49.570;10.986;2024-03-07T08:50:01;98852.59;;;3.23;100.00
52137;BME280;69622;49.570;10.986;2024-03-07T08:53:10;98855.22;;;3.21;100.00
52137;BME280;69622;49.570;10.986;2024-03-07T08:56:11;98854.97;;;3.27;100.00
52137;BME280;69622;49.570;10.986;2024-03-07T08:59:13;98860.75;;;3.34;100.00
52137;BME280;69622;49.570;10.986;2024-03-07T09:02:18;98856.25;;;3.39;100.00
52137;BME280;69622;49.570;10.986;2024-03-07T09:05:21;98850.59;;;3.29;100.00
52137;BME280;69622;49.570;10.986;2024-03-07T09:08:25;98859.19;;;3.74;100.00
52137;BME280;69622;49.570;10.986;2024-03-07T09:11:30;98859.19;;;3.52;100.00
52137;BME280;69622;49.570;10.986;2024-03-07T09:14:33;98849.56;;;3.57;100.00
52137;BME280;69622;49.570;10.986;2024-03-07T09:17:34;98849.25;;;3.43;100.00
52137;BME280;69622;49.570;10.986;2024-03-07T09:20:36;98841.59;;;3.85;100.00
52137;BME280;69622;49.570;10.986;2024-03-07T09:23:39;98847.03;;;3.77;100.00
52137;BME280;69622;49.570;10.986;2024-03-07T09:26:41;98840.38;;;4.15;100.00
52137;BME280;69622;49.570;10.986;2024-03-07T09:29:42;98846.22;;;4.19;100.00
52137;BME280;69622;49.570;10.986;2024-03-07T09:32:44;98833.22;;;4.63;100.00
52137;BME280;69622;49.570;10.986;2024-03-07T09:35:46;98832.69;;;4.75;100.00
52137;BME280;69622;49.570;10.986;2024-03-07T09:38:48;98832.59;;;4.58;100.00
52137;BME280;69622;49.570;10.986;2024-03-07T09:41:49;98826.84;;;4.51;100.00
52137;BME280;69622;49.570;10.986;2024-03-07T09:44:52;98833.56;;;5.13;100.00
52137;BME280;69622;49.570;10.986;2024-03-07T09:47:56;98820.16;;;4.86;100.00
52137;BME280;69622;49.570;10.986;2024-03-07T09:51:00;98829.00;;;4.99;100.00
52137;BME280;69622;49.570;10.986;2024-03-07T09:54:03;98824.69;;;5.00;100.00
52137;BME280;69622;49.570;10.986;2024-03-07T09:57:06;98824.00;;;4.77;100.00
52137;BME280;69622;49.570;10.986;2024-03-07T10:00:10;98819.31;;;5.61;100.00
52137;BME280;69622;49.570;10.986;2024-03-07T10:03:20;98823.44;;;5.46;100.00
52137;BME280;69622;49.570;10.986;2024-03-07T10:06:25;98821.13;;;5.95;100.00
52137;BME280;69622;49.570;10.986;2024-03-07T10:09:30;98820.59;;;6.40;100.00
52137;BME280;69622;49.570;10.986;2024-03-07T10:12:33;98818.94;;;5.68;100.00
52137;BME280;69622;49.570;10.986;2024-03-07T10:15:35;98811.28;;;6.03;100.00
52137;BME280;69622;49.570;10.986;2024-03-07T10:18:43;98807.03;;;6.19;100.00
52137;BME280;69622;49.570;10.986;2024-03-07T10:21:45;98806.06;;;5.86;100.00
52137;BME280;69622;49.570;10.986;2024-03-07T10:24:51;98807.03;;;6.02;100.00
52137;BME280;69622;49.570;10.986;2024-03-07T10:27:53;98804.31;;;6.88;100.00
52137;BME280;69622;49.570;10.986;2024-03-07T10:30:55;98802.84;;;7.16;100.00
52137;BME280;69622;49.570;10.986;2024-03-07T10:34:01;98791.66;;;7.15;100.00
52137;BME280;69622;49.570;10.986;2024-03-07T10:37:04;98788.56;;;7.40;100.00
52137;BME280;69622;49.570;10.986;2024-03-07T10:40:06;98790.50;;;7.05;100.00
52137;BME280;69622;49.570;10.986;2024-03-07T10:43:18;98776.72;;;7.20;100.00
52137;BME280;69622;49.570;10.986;2024-03-07T10:46:22;98774.22;;;7.19;100.00
52137;BME280;69622;49.570;10.986;2024-03-07T10:49:26;98778.72;;;6.51;100.00
52137;BME280;69622;49.570;10.986;2024-03-07T10:52:39;98779.31;;;7.05;100.00
52137;BME280;69622;49.570;10.986;2024-03-07T10:59:07;98772.59;;;6.69;100.00
52137;BME280;69622;49.570;10.986;2024-03-07T11:02:27;98776.03;;;6.85;100.00
52137;BME280;69622;49.570;10.986;2024-03-07T11:05:33;98773.94;;;6.43;100.00
52137;BME280;69622;49.570;10.986;2024-03-07T11:08:37;98773.09;;;6.43;100.00
52137;BME280;69622;49.570;10.986;2024-03-07T11:11:39;98763.38;;;6.97;100.00
52137;BME280;69622;49.570;10.986;2024-03-07T11:14:45;98761.28;;;7.19;100.00
52137;BME280;69622;49.570;10.986;2024-03-07T11:17:49;98767.09;;;7.54;100.00
52137;BME280;69622;49.570;10.986;2024-03-07T11:20:52;98762.72;;;7.25;100.00
52137;BME280;69622;49.570;10.986;2024-03-07T11:23:53;98757.63;;;7.23;100.00
52137;BME280;69622;49.570;10.986;2024-03-07T11:26:56;98756.88;;;7.82;100.00
52137;BME280;69622;49.570;10.986;2024-03-07T11:30:06;98754.69;;;7.91;100.00
52137;BME280;69622;49.570;10.986;2024-03-07T11:33:11;98758.31;;;7.72;100.00
52137;BME280;69622;49.570;10.986;2024-03-07T11:36:41;98748.16;;;7.54;100.00
52137;BME280;69622;49.570;10.986;2024-03-07T11:39:45;98752.66;;;7.66;100.00
52137;BME280;69622;49.570;10.986;2024-03-07T11:42:53;98743.13;;;7.66;100.00
52137;BME280;69622;49.570;10.986;2024-03-07T11:45:55;98740.38;;;7.69;100.00
52137;BME280;69622;49.570;10.986;2024-03-07T11:49:00;98733.31;;;7.41;100.00
52137;BME280;69622;49.570;10.986;2024-03-07T11:52:02;98729.22;;;7.53;100.00
52137;BME280;69622;49.570;10.986;2024-03-07T11:55:13;98722.00;;;7.28;98.66
52137;BME280;69622;49.570;10.986;2024-03-07T11:58:16;98723.47;;;7.48;100.00
52137;BME280;69622;49.570;10.986;2024-03-07T12:01:21;98720.19;;;7.14;100.00
52137;BME280;69622;49.570;10.986;2024-03-07T12:04:26;98726.91;;;7.33;100.00
52137;BME280;69622;49.570;10.986;2024-03-07T12:07:28;98722.41;;;7.36;100.00
52137;BME280;69622;49.570;10.986;2024-03-07T12:10:29;98724.63;;;7.58;100.00
52137;BME280;69622;49.570;10.986;2024-03-07T12:13:31;98712.06;;;7.36;100.00
52137;BME280;69622;49.570;10.986;2024-03-07T12:16:34;98708.84;;;7.63;100.00
52137;BME280;69622;49.570;10.986;2024-03-07T12:19:35;98712.78;;;7.38;99.80
52137;BME280;69622;49.570;10.986;2024-03-07T12:22:37;98712.94;;;7.51;96.66
52137;BME280;69622;49.570;10.986;2024-03-07T12:25:38;98711.03;;;7.39;99.88
52137;BME280;69622;49.570;10.986;2024-03-07T12:28:40;98712.06;;;7.36;100.00
52137;BME280;69622;49.570;10.986;2024-03-07T12:31:44;98711.81;;;7.25;99.97
52137;BME280;69622;49.570;10.986;2024-03-07T12:34:45;98707.44;;;7.11;100.00
52137;BME280;69622;49.570;10.986;2024-03-07T12:37:48;98698.56;;;7.31;100.00
52137;BME280;69622;49.570;10.986;2024-03-07T12:41:06;98699.44;;;7.46;99.11
52137;BME280;69622;49.570;10.986;2024-03-07T12:44:12;98697.97;;;7.56;96.29
52137;BME280;69622;49.570;10.986;2024-03-07T12:47:16;98695.69;;;7.36;100.00
52137;BME280;69622;49.570;10.986;2024-03-07T12:50:18;98699.00;;;7.54;100.00
52137;BME280;69622;49.570;10.986;2024-03-07T12:53:23;98692.88;;;7.25;95.39
52137;BME280;69622;49.570;10.986;2024-03-07T12:56:26;98687.19;;;7.34;98.69
52137;BME280;69622;49.570;10.986;2024-03-07T12:59:28;98687.25;;;7.48;95.33
52137;BME280;69622;49.570;10.986;2024-03-07T13:02:30;98684.94;;;7.43;92.32
52137;BME280;69622;49.570;10.986;2024-03-07T13:05:31;98689.78;;;7.34;94.62
52137;BME280;69622;49.570;10.986;2024-03-07T13:08:33;98690.44;;;7.37;91.41
52137;BME280;69622;49.570;10.986;2024-03-07T13:11:35;98685.81;;;7.28;96.60
52137;BME280;69622;49.570;10.986;2024-03-07T13:14:36;98684.84;;;7.45;95.62
52137;BME280;69622;49.570;10.986;2024-03-07T13:17:38;98687.63;;;7.56;96.66
52137;BME280;69622;49.570;10.986;2024-03-07T13:20:40;98685.03;;;7.56;90.19
52137;BME280;69622;49.570;10.986;2024-03-07T13:23:44;98683.03;;;7.61;88.54
52137;BME280;69622;49.570;10.986;2024-03-07T13:26:46;98682.53;;;7.25;86.06
52137;BME280;69622;49.570;10.986;2024-03-07T13:29:51;98678.38;;;7.22;90.63
52137;BME280;69622;49.570;10.986;2024-03-07T13:32:57;98680.28;;;7.34;90.39
52137;BME280;69622;49.570;10.986;2024-03-07T13:35:59;98679.28;;;7.21;88.97
52137;BME280;69622;49.570;10.986;2024-03-07T13:39:02;98681.41;;;7.14;92.52
52137;BME280;69622;49.570;10.986;2024-03-07T13:42:08;98671.25;;;7.26;94.20
52137;BME280;69622;49.570;10.986;2024-03-07T13:45:12;98669.22;;;7.16;98.36
52137;BME280;69622;49.570;10.986;2024-03-07T13:48:14;98669.59;;;7.55;92.63
52137;BME280;69622;49.570;10.986;2024-03-07T13:51:18;98673.06;;;7.39;93.08
52137;BME280;69622;49.570;10.986;2024-03-07T13:54:22;98675.25;;;7.47;93.56
52137;BME280;69622;49.570;10.986;2024-03-07T13:57:41;98676.16;;;7.46;91.70
52137;BME280;69622;49.570;10.986;2024-03-07T14:00:54;98669.19;;;7.62;90.05
52137;BME280;69622;49.570;10.986;2024-03-07T14:07:42;98673.53;;;7.32;94.91
52137;BME280;69622;49.570;10.986;2024-03-07T14:14:30;98670.75;;;7.35;94.80
52137;BME280;69622;49.570;10.986;2024-03-07T14:21:20;98673.34;;;7.35;90.25
52137;BME280;69622;49.570;10.986;2024-03-07T14:28:31;98666.97;;;7.40;87.16
52137;BME280;69622;49.570;10.986;2024-03-07T14:31:39;98666.13;;;7.40;89.29
52137;BME280;69622;49.570;10.986;2024-03-07T14:37:54;98661.94;;;7.23;91.96
52137;BME280;69622;49.570;10.986;2024-03-07T14:40:57;98667.56;;;7.45;90.39
52137;BME280;69622;49.570;10.986;2024-03-07T14:43:59;98670.91;;;7.47;86.81
52137;BME280;69622;49.570;10.986;2024-03-07T14:47:03;98663.81;;;7.35;88.74
52137;BME280;69622;49.570;10.986;2024-03-07T14:50:08;98662.13;;;7.04;91.02
52137;BME280;69622;49.570;10.986;2024-03-07T14:53:12;98663.72;;;7.07;96.68
52137;BME280;69622;49.570;10.986;2024-03-07T14:56:14;98664.88;;;7.01;93.90
52137;BME280;69622;49.570;10.986;2024-03-07T14:59:15;98660.72;;;7.14;92.70
52137;BME280;69622;49.570;10.986;2024-03-07T15:02:17;98660.63;;;7.16;94.08
52137;BME280;69622;49.570;10.986;2024-03-07T15:05:19;98661.72;;;7.12;95.10
52137;BME280;69622;49.570;10.986;2024-03-07T15:08:21;98660.44;;;7.19;95.20
52137;BME280;69622;49.570;10.986;2024-03-07T15:11:36;98657.06;;;6.87;96.10
52137;BME280;69622;49.570;10.986;2024-03-07T15:14:41;98654.63;;;7.00;93.15
52137;BME280;69622;49.570;10.986;2024-03-07T15:17:46;98659.22;;;7.10;94.37
52137;BME280;69622;49.570;10.986;2024-03-07T15:20:47;98655.19;;;7.20;96.50
52137;BME280;69622;49.570;10.986;2024-03-07T15:23:49;98657.47;;;6.95;94.30
52137;BME280;69622;49.570;10.986;2024-03-07T15:26:50;98658.47;;;6.93;92.22
52137;BME280;69622;49.570;10.986;2024-03-07T15:29:52;98657.06;;;6.71;92.43
52137;BME280;69622;49.570;10.986;2024-03-07T15:32:53;98658.16;;;6.83;95.41
52137;BME280;69622;49.570;10.986;2024-03-07T15:35:55;98653.22;;;6.78;92.83
52137;BME280;69622;49.570;10.986;2024-03-07T15:38:57;98658.47;;;6.77;94.28
52137;BME280;69622;49.570;10.986;2024-03-07T15:41:59;98652.47;;;6.92;93.42
52137;BME280;69622;49.570;10.986;2024-03-07T15:45:01;98662.88;;;7.06;94.08
52137;BME280;69622;49.570;10.986;2024-03-07T15:48:03;98650.63;;;6.78;97.14
52137;BME280;69622;49.570;10.986;2024-03-07T15:51:12;98657.16;;;6.85;97.06
52137;BME280;69622;49.570;10.986;2024-03-07T15:54:13;98645.47;;;6.63;94.12
52137;BME280;69622;49.570;10.986;2024-03-07T15:57:19;98644.41;;;6.51;94.92
52137;BME280;69622;49.570;10.986;2024-03-07T16:00:22;98640.78;;;6.38;97.83
52137;BME280;69622;49.570;10.986;2024-03-07T16:03:24;98646.72;;;6.55;97.18
52137;BME280;69622;49.570;10.986;2024-03-07T16:06:26;98644.03;;;6.41;98.00
52137;BME280;69622;49.570;10.986;2024-03-07T16:09:28;98654.22;;;6.44;98.66
52137;BME280;69622;49.570;10.986;2024-03-07T16:12:29;98652.63;;;6.42;97.39
52137;BME280;69622;49.570;10.986;2024-03-07T16:15:36;98652.91;;;6.53;97.28
52137;BME280;69622;49.570;10.986;2024-03-07T16:18:42;98650.88;;;6.42;97.37
52137;BME280;69622;49.570;10.986;2024-03-07T16:21:45;98647.88;;;6.34;100.00